Time;durP1;ratioP1;P1;durP2;ratioP2;P2;SDS_P1;SDS_P2;PMS_P1;PMS_P2;Temp;Humidity;BMP_temperature;BMP_pressure;BME280_temperature;BME280_humidity;BME280_pressure;Samples;Min_cycle;Max_cycle;Signal;HPM_P1;HPM_P2
2022/02/20 00:02:02;;;;;;;22.08;20.67;;;7.10;62.30;;;;;;5073031;28;20268;-72
2022/02/20 00:04:29;;;;;;;23.23;21.20;;;7.10;62.80;;;;;;5073061;28;20687;-72
2022/02/20 00:06:56;;;;;;;21.42;19.92;;;7.10;62.90;;;;;;5073107;28;20211;-72
2022/02/20 00:09:23;;;;;;;22.20;20.80;;;7.00;63.50;;;;;;5072892;28;20247;-72
2022/02/20 00:11:51;;;;;;;21.52;20.27;;;6.90;64.20;;;;;;5072877;28;20697;-72
2022/02/20 00:14:18;;;;;;;21.90;20.40;;;6.90;64.80;;;;;;5072915;28;20226;-72
2022/02/20 00:16:45;;;;;;;21.63;20.17;;;6.90;65.50;;;;;;5072757;28;20306;-72
2022/02/20 00:19:12;;;;;;;21.52;20.08;;;6.80;66.40;;;;;;5072812;28;20195;-72
2022/02/20 00:21:39;;;;;;;21.52;20.10;;;6.80;66.70;;;;;;5072736;28;20644;-72
2022/02/20 00:24:06;;;;;;;21.15;19.85;;;6.80;66.80;;;;;;5072795;28;20209;-72
2022/02/20 00:26:33;;;;;;;21.60;20.20;;;6.80;66.80;;;;;;5072654;28;20198;-72
2022/02/20 00:29:01;;;;;;;21.77;20.48;;;6.90;66.80;;;;;;5072677;28;20204;-72
2022/02/20 00:31:28;;;;;;;21.10;19.90;;;6.80;67.00;;;;;;5072446;28;20299;-72
2022/02/20 00:33:55;;;;;;;21.92;20.52;;;6.70;67.30;;;;;;5072586;28;20211;-72
2022/02/20 00:36:21;;;;;;;21.90;20.60;;;6.70;67.50;;;;;;5072640;28;20193;-72
2022/02/20 00:38:48;;;;;;;23.02;21.25;;;6.70;67.60;;;;;;5072591;28;20195;-72
2022/02/20 00:41:15;;;;;;;22.08;20.77;;;6.70;67.90;;;;;;5072446;28;20263;-72
2022/02/20 00:43:42;;;;;;;21.40;20.10;;;6.70;68.40;;;;;;5072723;28;20698;-72
2022/02/20 00:46:10;;;;;;;22.05;20.63;;;6.60;68.80;;;;;;5072581;28;20207;-72
2022/02/20 00:48:37;;;;;;;21.27;20.15;;;6.50;69.30;;;;;;5072996;28;20258;-72
2022/02/20 00:51:04;;;;;;;21.45;20.02;;;6.50;69.60;;;;;;5073155;28;20214;-72
2022/02/20 00:53:31;;;;;;;21.95;20.40;;;6.50;70.00;;;;;;5073349;28;20210;-72
2022/02/20 00:55:58;;;;;;;22.05;20.70;;;6.50;70.10;;;;;;5072843;28;20290;-72
2022/02/20 00:58:25;;;;;;;21.58;20.38;;;6.50;70.50;;;;;;5072590;28;20314;-72
2022/02/20 01:00:52;;;;;;;21.33;19.98;;;6.50;70.70;;;;;;5072957;28;20251;-72
2022/02/20 01:03:20;;;;;;;21.15;20.05;;;6.50;70.90;;;;;;5073056;28;20198;-72
2022/02/20 01:05:47;;;;;;;21.73;20.33;;;6.50;71.10;;;;;;5073124;28;20199;-72
2022/02/20 01:08:14;;;;;;;21.77;20.27;;;6.40;71.40;;;;;;5072469;28;20203;-72
2022/02/20 01:10:41;;;;;;;22.15;20.95;;;6.50;71.50;;;;;;5072305;28;20294;-72
2022/02/20 01:13:08;;;;;;;22.05;20.50;;;6.50;71.40;;;;;;5072526;28;20290;-72
2022/02/20 01:15:35;;;;;;;22.02;20.73;;;6.50;71.40;;;;;;5072240;28;20299;-72
2022/02/20 01:18:02;;;;;;;21.90;20.70;;;6.50;71.40;;;;;;5072121;28;20226;-72
2022/02/20 01:20:30;;;;;;;21.85;20.55;;;6.40;71.80;;;;;;5072108;28;20221;-72
2022/02/20 01:22:57;;;;;;;21.80;20.60;;;6.40;71.70;;;;;;5072265;28;20207;-72
2022/02/20 01:25:24;;;;;;;22.30;20.95;;;6.40;71.90;;;;;;5072585;28;20219;-72
2022/02/20 01:27:51;;;;;;;22.45;21.15;;;6.40;71.90;;;;;;5071765;28;20294;-72
2022/02/20 01:30:18;;;;;;;20.98;19.70;;;6.40;72.00;;;;;;5071814;28;20230;-72
2022/02/20 01:32:44;;;;;;;21.08;19.88;;;6.40;72.00;;;;;;5071935;28;20285;-72
2022/02/20 01:35:11;;;;;;;22.10;20.70;;;6.40;72.30;;;;;;5071994;28;20241;-72
2022/02/20 01:37:40;;;;;;;20.88;19.77;;;6.40;72.30;;;;;;5071915;28;20223;-72
2022/02/20 01:40:08;;;;;;;22.25;20.92;;;6.30;72.40;;;;;;5071887;28;20202;-72
2022/02/20 01:42:35;;;;;;;21.50;20.00;;;6.40;72.20;;;;;;5073463;28;20303;-72
2022/02/20 01:45:02;;;;;;;22.70;21.05;;;6.40;72.30;;;;;;5075788;28;20285;-72
2022/02/20 01:47:29;;;;;;;21.50;20.23;;;6.50;72.10;;;;;;5075775;28;20193;-72
2022/02/20 01:49:56;;;;;;;22.02;20.45;;;6.50;72.10;;;;;;5075569;28;20199;-72
2022/02/20 01:52:23;;;;;;;21.83;20.45;;;6.40;72.20;;;;;;5075450;28;20285;-72
2022/02/20 01:54:52;;;;;;;20.85;19.60;;;6.50;72.20;;;;;;5075701;28;20679;-72
2022/02/20 01:57:20;;;;;;;21.92;20.48;;;6.50;72.10;;;;;;5075501;28;20314;-72
2022/02/20 01:59:46;;;;;;;22.45;20.92;;;6.40;72.20;;;;;;5075539;28;20205;-71
2022/02/20 02:02:19;;;;;;;21.90;20.70;;;6.40;72.00;;;;;;5075426;28;20277;-72
2022/02/20 02:04:46;;;;;;;21.70;20.08;;;6.50;72.00;;;;;;5075549;28;20253;-72
2022/02/20 02:07:13;;;;;;;21.58;20.27;;;6.50;72.10;;;;;;5075601;28;20202;-72
2022/02/20 02:09:40;;;;;;;21.58;20.13;;;6.50;72.00;;;;;;5075075;28;20236;-72
2022/02/20 02:12:09;;;;;;;21.63;20.42;;;6.40;72.40;;;;;;5075415;28;20305;-72
2022/02/20 02:14:54;;;;;;;21.85;20.55;;;6.40;72.40;;;;;;5075267;28;20291;-72
2022/02/20 02:17:21;;;;;;;22.35;21.15;;;6.50;72.30;;;;;;5075210;28;20317;-72
2022/02/20 02:19:48;;;;;;;21.17;19.90;;;6.60;72.40;;;;;;5074859;28;20199;-72
2022/02/20 02:22:18;;;;;;;21.90;20.50;;;6.60;72.10;;;;;;5075072;28;20219;-72
2022/02/20 02:24:46;;;;;;;22.50;20.83;;;6.60;72.10;;;;;;5075048;28;20657;-72
2022/02/20 02:27:14;;;;;;;21.90;20.45;;;6.60;72.20;;;;;;5074661;28;20286;-72
2022/02/20 02:29:41;;;;;;;21.63;20.27;;;6.70;72.20;;;;;;5074665;28;20202;-72
2022/02/20 02:32:08;;;;;;;22.20;20.80;;;6.70;72.10;;;;;;5074756;28;20219;-72
2022/02/20 02:34:35;;;;;;;22.75;20.92;;;6.70;72.20;;;;;;5074701;28;20235;-72
2022/02/20 02:37:03;;;;;;;21.85;20.30;;;6.70;72.10;;;;;;5074562;28;20274;-72
2022/02/20 02:39:31;;;;;;;21.88;20.58;;;6.70;72.10;;;;;;5074419;28;20202;-72
2022/02/20 02:42:00;;;;;;;21.70;20.30;;;6.70;72.30;;;;;;5074727;28;20219;-72
2022/02/20 02:44:27;;;;;;;22.20;20.85;;;6.70;72.50;;;;;;5074555;28;20202;-72
2022/02/20 02:46:53;;;;;;;21.38;19.73;;;6.70;72.40;;;;;;5074546;28;20210;-72
2022/02/20 02:49:20;;;;;;;21.63;20.33;;;6.70;72.40;;;;;;5074414;28;20198;-72
2022/02/20 02:51:47;;;;;;;21.45;20.25;;;6.60;72.40;;;;;;5074369;28;20227;-72
2022/02/20 02:54:17;;;;;;;21.75;20.65;;;6.80;72.20;;;;;;5073557;28;20319;-72
2022/02/20 02:56:46;;;;;;;22.20;21.10;;;6.90;71.90;;;;;;5074169;28;20203;-72
2022/02/20 02:59:14;;;;;;;22.23;20.80;;;6.80;72.30;;;;;;5074153;28;20223;-72
2022/02/20 03:01:42;;;;;;;21.35;20.25;;;6.80;72.60;;;;;;5074381;28;20218;-72
2022/02/20 03:04:09;;;;;;;21.27;20.05;;;6.90;72.60;;;;;;5074236;28;20566;-72
2022/02/20 03:06:36;;;;;;;21.50;20.08;;;6.80;72.70;;;;;;5074240;28;20242;-72
2022/02/20 03:09:07;;;;;;;20.98;19.77;;;6.90;72.60;;;;;;5074195;28;20208;-72
2022/02/20 03:11:34;;;;;;;20.65;19.65;;;6.90;72.50;;;;;;5074296;28;20221;-72
2022/02/20 03:14:04;;;;;;;21.20;19.85;;;6.90;72.60;;;;;;5074283;28;20283;-72
2022/02/20 03:16:31;;;;;;;21.58;20.40;;;6.90;72.60;;;;;;5073878;28;20230;-72
2022/02/20 03:18:59;;;;;;;21.10;19.95;;;6.90;72.40;;;;;;5073704;28;20268;-72
2022/02/20 03:21:26;;;;;;;21.70;20.27;;;6.90;72.70;;;;;;5073744;28;20224;-72
2022/02/20 03:23:53;;;;;;;21.17;20.02;;;6.80;72.90;;;;;;5073905;28;20579;-72
2022/02/20 03:26:20;;;;;;;20.90;19.65;;;6.90;73.30;;;;;;5073496;28;20722;-72
2022/02/20 03:28:47;;;;;;;21.20;20.00;;;7.00;72.80;;;;;;5073608;28;20196;-72
2022/02/20 03:31:15;;;;;;;20.52;19.48;;;7.00;72.70;;;;;;5073431;28;20225;-72
2022/02/20 03:33:43;;;;;;;21.65;20.25;;;7.00;72.80;;;;;;5073540;28;20205;-72
2022/02/20 03:36:10;;;;;;;21.20;19.90;;;7.00;72.80;;;;;;5073489;28;20607;-72
2022/02/20 03:38:37;;;;;;;21.98;20.65;;;7.00;73.20;;;;;;5073461;28;20306;-72
2022/02/20 03:41:04;;;;;;;20.52;19.33;;;7.00;73.20;;;;;;5073220;28;20579;-72
2022/02/20 03:43:31;;;;;;;21.50;20.30;;;7.00;73.30;;;;;;5073565;28;20291;-72
2022/02/20 03:45:58;;;;;;;21.38;20.02;;;7.00;73.40;;;;;;5073391;28;20199;-72
2022/02/20 03:48:26;;;;;;;20.83;19.70;;;6.90;73.60;;;;;;5073311;28;20197;-72
2022/02/20 03:50:53;;;;;;;21.38;20.08;;;7.00;73.70;;;;;;5073038;28;20224;-72
2022/02/20 03:53:20;;;;;;;21.02;19.92;;;7.00;73.70;;;;;;5073124;28;20209;-72
2022/02/20 03:55:47;;;;;;;21.45;20.25;;;7.00;73.70;;;;;;5073298;28;20199;-72
2022/02/20 03:58:14;;;;;;;20.88;19.70;;;7.00;73.70;;;;;;5073154;28;20692;-72
2022/02/20 04:00:41;;;;;;;21.25;20.05;;;7.10;73.90;;;;;;5072940;28;20218;-72
2022/02/20 04:03:08;;;;;;;21.42;20.13;;;7.00;74.50;;;;;;5073101;28;20261;-72
2022/02/20 04:05:36;;;;;;;21.15;20.00;;;7.00;75.10;;;;;;5072806;28;20278;-72
2022/02/20 04:08:04;;;;;;;21.30;20.10;;;7.00;75.50;;;;;;5073108;28;20247;-72
2022/02/20 04:10:31;;;;;;;21.00;19.90;;;6.90;76.10;;;;;;5072791;28;20229;-72
2022/02/20 04:12:58;;;;;;;20.30;19.20;;;6.90;76.70;;;;;;5073118;28;20202;-72
2022/02/20 04:15:25;;;;;;;21.10;19.85;;;6.90;77.40;;;;;;5073029;28;20295;-72
2022/02/20 04:17:52;;;;;;;20.83;19.55;;;6.90;77.50;;;;;;5073010;28;20384;-72
2022/02/20 04:20:20;;;;;;;20.60;19.55;;;6.80;78.00;;;;;;5072554;28;20568;-72
2022/02/20 04:22:48;;;;;;;19.77;18.73;;;6.80;78.20;;;;;;5073076;28;20233;-72
2022/02/20 04:25:16;;;;;;;20.35;19.35;;;6.90;78.20;;;;;;5072749;28;20200;-72
2022/02/20 04:27:44;;;;;;;20.13;19.13;;;6.80;78.20;;;;;;5072595;28;20740;-72
2022/02/20 04:30:13;;;;;;;19.60;18.60;;;6.80;78.50;;;;;;5072828;28;20198;-72
2022/02/20 04:32:40;;;;;;;20.90;19.90;;;6.70;79.10;;;;;;5072838;28;20211;-72
2022/02/20 04:35:07;;;;;;;20.55;19.52;;;6.80;79.60;;;;;;5072597;28;20203;-72
2022/02/20 04:37:35;;;;;;;20.50;19.50;;;6.80;80.00;;;;;;5072698;28;20204;-72
2022/02/20 04:40:04;;;;;;;20.30;18.95;;;6.90;79.50;;;;;;5072428;28;20720;-72
2022/02/20 04:42:31;;;;;;;20.98;19.38;;;6.90;79.20;;;;;;5072659;28;20735;-72
2022/02/20 04:44:58;;;;;;;19.95;18.95;;;6.80;79.50;;;;;;5072653;28;20289;-72
2022/02/20 04:47:25;;;;;;;20.63;19.63;;;6.80;79.50;;;;;;5072407;28;20236;-72
2022/02/20 04:49:52;;;;;;;19.98;18.90;;;6.90;79.50;;;;;;5072362;28;20616;-72
2022/02/20 04:52:19;;;;;;;20.05;19.05;;;6.90;79.60;;;;;;5072212;28;20643;-72
2022/02/20 04:54:46;;;;;;;20.48;19.27;;;6.80;79.80;;;;;;5072471;28;20199;-72
2022/02/20 04:57:14;;;;;;;19.30;18.40;;;6.90;79.70;;;;;;5072404;28;20560;-72
2022/02/20 04:59:41;;;;;;;20.63;19.42;;;6.90;79.90;;;;;;5072125;28;20581;-72
2022/02/20 05:02:08;;;;;;;20.38;19.20;;;6.80;80.30;;;;;;5072350;28;20220;-72
2022/02/20 05:04:35;;;;;;;19.58;18.38;;;6.80;80.40;;;;;;5072320;28;20222;-72
2022/02/20 05:07:02;;;;;;;19.58;18.40;;;6.90;80.30;;;;;;5072370;28;20203;-72
2022/02/20 05:09:29;;;;;;;19.75;18.60;;;6.80;80.60;;;;;;5072187;28;20195;-72
2022/02/20 05:11:55;;;;;;;19.48;18.48;;;6.80;81.10;;;;;;5072376;28;20265;-72
2022/02/20 05:14:24;;;;;;;18.55;17.65;;;6.80;81.30;;;;;;5072488;28;20294;-72
2022/02/20 05:16:51;;;;;;;18.83;17.83;;;6.70;81.80;;;;;;5072516;28;20192;-72
2022/02/20 05:19:18;;;;;;;18.75;17.85;;;6.70;81.70;;;;;;5075921;28;20302;-72
2022/02/20 05:21:44;;;;;;;18.80;17.90;;;6.80;81.50;;;;;;5076162;28;20225;-72
2022/02/20 05:24:11;;;;;;;19.58;18.40;;;6.70;81.60;;;;;;5076169;28;20767;-72
2022/02/20 05:26:38;;;;;;;19.30;18.00;;;6.70;81.70;;;;;;5075913;28;20209;-72
2022/02/20 05:29:05;;;;;;;19.38;18.08;;;6.70;81.50;;;;;;5076051;28;20234;-72
2022/02/20 05:31:33;;;;;;;19.10;18.13;;;6.60;82.30;;;;;;5075746;28;20225;-71
2022/02/20 05:34:00;;;;;;;18.90;18.00;;;6.60;82.80;;;;;;5075816;28;20199;-72
2022/02/20 05:36:27;;;;;;;20.00;18.90;;;6.60;82.70;;;;;;5075888;28;20206;-72
2022/02/20 05:38:54;;;;;;;18.77;17.88;;;6.60;82.80;;;;;;5075756;28;20230;-72
2022/02/20 05:41:21;;;;;;;18.40;17.40;;;6.60;83.40;;;;;;5075521;28;20796;-72
2022/02/20 05:43:48;;;;;;;18.27;17.45;;;6.50;83.90;;;;;;5075699;28;20672;-72
2022/02/20 05:46:15;;;;;;;18.52;17.52;;;6.60;83.80;;;;;;5075616;28;20254;-72
2022/02/20 05:48:43;;;;;;;18.58;17.58;;;6.50;83.90;;;;;;5075672;28;20664;-72
2022/02/20 05:51:10;;;;;;;17.88;16.98;;;6.60;84.40;;;;;;5075312;28;20215;-72
2022/02/20 05:53:37;;;;;;;18.50;17.40;;;6.50;85.00;;;;;;5075623;28;20211;-72
2022/02/20 05:56:05;;;;;;;18.52;17.63;;;6.50;85.10;;;;;;5075541;28;20321;-72
2022/02/20 05:58:32;;;;;;;18.38;17.38;;;6.60;84.90;;;;;;5075363;28;20229;-72
2022/02/20 06:00:59;;;;;;;18.40;17.40;;;6.60;84.80;;;;;;5075187;28;20958;-72
2022/02/20 06:03:26;;;;;;;18.38;17.38;;;6.60;84.70;;;;;;5075476;28;20202;-72
2022/02/20 06:05:54;;;;;;;18.08;16.98;;;6.60;84.90;;;;;;5075366;28;20514;-72
2022/02/20 06:08:21;;;;;;;18.50;17.40;;;6.60;84.70;;;;;;5075402;28;20194;-72
2022/02/20 06:10:48;;;;;;;18.60;17.55;;;6.60;84.70;;;;;;5075007;28;20215;-72
2022/02/20 06:13:17;;;;;;;18.52;17.63;;;6.60;84.40;;;;;;5075211;28;20205;-72
2022/02/20 06:15:44;;;;;;;18.30;17.40;;;6.60;83.60;;;;;;5075049;28;20230;-72
2022/02/20 06:18:11;;;;;;;19.00;18.00;;;6.60;83.60;;;;;;5075001;28;20558;-72
2022/02/20 06:20:37;;;;;;;18.58;17.63;;;6.60;83.70;;;;;;5074864;28;20302;-72
2022/02/20 06:23:06;;;;;;;18.27;17.38;;;6.60;83.60;;;;;;5075062;28;20193;-72
2022/02/20 06:25:33;;;;;;;18.73;17.60;;;6.60;83.60;;;;;;5075000;28;20205;-72
2022/02/20 06:28:00;;;;;;;19.27;18.27;;;6.70;83.70;;;;;;5074244;28;20206;-72
2022/02/20 06:30:27;;;;;;;19.65;18.50;;;6.70;84.00;;;;;;5074858;28;20287;-72
2022/02/20 06:32:54;;;;;;;19.60;18.27;;;6.70;83.10;;;;;;5074955;28;20202;-72
2022/02/20 06:35:21;;;;;;;19.48;18.35;;;6.70;83.10;;;;;;5074693;28;20235;-72
2022/02/20 06:37:48;;;;;;;21.00;19.95;;;6.80;83.00;;;;;;5074745;28;20197;-72
2022/02/20 06:40:16;;;;;;;19.38;18.33;;;6.90;82.20;;;;;;5074323;28;20717;-72
2022/02/20 06:42:43;;;;;;;18.90;18.00;;;6.90;81.90;;;;;;5074650;28;20563;-72
2022/02/20 06:45:11;;;;;;;18.75;17.85;;;6.80;82.30;;;;;;5074697;28;20201;-72
2022/02/20 06:47:38;;;;;;;19.95;18.75;;;6.90;82.30;;;;;;5074618;28;20204;-72
2022/02/20 06:50:05;;;;;;;18.70;17.80;;;6.80;81.80;;;;;;5074310;28;20195;-72
2022/02/20 06:52:32;;;;;;;19.42;18.05;;;6.90;81.50;;;;;;5074339;28;20314;-72
2022/02/20 06:54:59;;;;;;;18.98;17.90;;;6.90;81.30;;;;;;5074317;28;20195;-72
2022/02/20 06:57:27;;;;;;;19.58;18.67;;;7.10;80.80;;;;;;5074342;28;20290;-72
2022/02/20 06:59:54;;;;;;;18.83;17.92;;;7.00;80.60;;;;;;5074059;28;20309;-72
2022/02/20 07:02:21;;;;;;;19.58;18.45;;;7.10;80.50;;;;;;5074223;28;20739;-72
2022/02/20 07:04:48;;;;;;;18.52;17.63;;;7.10;80.70;;;;;;5074169;28;20710;-72
2022/02/20 07:07:15;;;;;;;21.38;20.38;;;7.20;79.80;;;;;;5074232;28;20572;-72
2022/02/20 07:09:42;;;;;;;19.55;18.45;;;7.10;80.10;;;;;;5073947;28;20269;-72
2022/02/20 07:12:09;;;;;;;20.13;19.00;;;7.20;79.40;;;;;;5074369;28;20249;-72
2022/02/20 07:14:38;;;;;;;20.00;18.95;;;7.20;79.10;;;;;;5073962;28;20206;-72
2022/02/20 07:17:05;;;;;;;19.80;18.80;;;7.20;79.30;;;;;;5073918;28;20210;-72
2022/02/20 07:19:32;;;;;;;19.45;18.45;;;7.20;79.40;;;;;;5073785;28;20219;-72
2022/02/20 07:21:59;;;;;;;19.25;18.25;;;7.30;79.00;;;;;;5073673;28;20657;-72
2022/02/20 07:24:27;;;;;;;19.33;18.35;;;7.40;78.90;;;;;;5073699;28;20196;-72
2022/02/20 07:26:53;;;;;;;21.02;19.85;;;7.40;78.60;;;;;;5073601;28;20231;-72
2022/02/20 07:29:20;;;;;;;19.75;18.75;;;7.40;78.40;;;;;;5073654;28;20274;-72
2022/02/20 07:31:49;;;;;;;19.75;18.75;;;7.40;78.50;;;;;;5073495;28;20564;-72
2022/02/20 07:34:16;;;;;;;19.52;18.52;;;7.40;78.60;;;;;;5073607;28;20285;-72
2022/02/20 07:36:43;;;;;;;20.00;18.90;;;7.50;78.90;;;;;;5073413;28;20200;-72
2022/02/20 07:39:10;;;;;;;19.92;18.75;;;7.50;78.80;;;;;;5073172;28;20255;-72
2022/02/20 07:41:38;;;;;;;20.55;19.45;;;7.60;78.20;;;;;;5072919;28;20222;-72
2022/02/20 07:44:06;;;;;;;21.50;20.27;;;7.70;78.20;;;;;;5073394;28;20195;-72
2022/02/20 07:46:33;;;;;;;22.70;21.60;;;7.60;78.20;;;;;;5073584;28;20252;-72
2022/02/20 07:49:01;;;;;;;19.20;18.30;;;7.80;77.80;;;;;;5073217;28;20244;-72
2022/02/20 07:51:29;;;;;;;20.10;19.10;;;7.80;77.60;;;;;;5073138;28;20310;-72
2022/02/20 07:53:56;;;;;;;20.90;19.80;;;7.90;77.40;;;;;;5073345;28;20262;-72
2022/02/20 07:56:23;;;;;;;19.75;18.75;;;7.80;77.40;;;;;;5073131;28;20201;-72
2022/02/20 07:58:50;;;;;;;19.73;18.73;;;7.90;77.40;;;;;;5073150;28;20282;-72
2022/02/20 08:01:17;;;;;;;21.95;20.90;;;8.00;76.90;;;;;;5072914;28;20234;-72
2022/02/20 08:03:44;;;;;;;20.52;19.45;;;8.00;76.90;;;;;;5073001;28;20203;-72
2022/02/20 08:06:12;;;;;;;20.90;19.70;;;8.10;76.80;;;;;;5072987;28;20194;-72
2022/02/20 08:08:39;;;;;;;21.60;20.50;;;8.20;76.30;;;;;;5072898;28;20196;-72
2022/02/20 08:11:06;;;;;;;21.75;20.73;;;8.40;75.60;;;;;;5072642;28;20208;-72
2022/02/20 08:13:33;;;;;;;20.90;19.90;;;8.50;75.10;;;;;;5073048;28;20195;-72
2022/02/20 08:16:00;;;;;;;22.27;20.85;;;8.60;75.10;;;;;;5072702;28;20200;-72
2022/02/20 08:18:27;;;;;;;21.60;20.50;;;8.70;74.50;;;;;;5072650;28;20668;-72
2022/02/20 08:20:54;;;;;;;19.92;18.73;;;8.60;74.50;;;;;;5072429;28;20305;-72
2022/02/20 08:23:22;;;;;;;20.17;18.90;;;8.70;74.20;;;;;;5072810;28;20207;-72
2022/02/20 08:25:49;;;;;;;20.67;19.50;;;8.60;74.40;;;;;;5072753;28;20196;-72
2022/02/20 08:28:16;;;;;;;20.15;19.15;;;8.70;74.10;;;;;;5072372;28;20293;-72
2022/02/20 08:30:43;;;;;;;20.70;19.60;;;8.70;74.00;;;;;;5072421;28;20212;-72
2022/02/20 08:33:10;;;;;;;20.63;19.52;;;8.90;73.60;;;;;;5072528;28;20634;-72
2022/02/20 08:35:37;;;;;;;21.05;19.65;;;8.90;73.20;;;;;;5072578;28;20203;-72
2022/02/20 08:38:08;;;;;;;21.55;20.10;;;8.90;73.30;;;;;;5072584;28;20198;-72
2022/02/20 08:40:39;;;;;;;21.50;20.40;;;9.00;73.10;;;;;;5072427;28;20247;-72
2022/02/20 08:43:06;;;;;;;21.50;20.20;;;9.00;72.90;;;;;;5072537;28;20669;-72
2022/02/20 08:45:33;;;;;;;21.85;20.70;;;9.00;73.00;;;;;;5072528;28;20205;-72
2022/02/20 08:48:01;;;;;;;20.75;19.65;;;9.00;72.90;;;;;;5072429;28;20682;-72
2022/02/20 08:50:28;;;;;;;21.40;20.20;;;9.00;73.00;;;;;;5072313;28;20225;-72
2022/02/20 08:52:55;;;;;;;21.17;20.17;;;9.00;72.80;;;;;;5070906;28;20207;-73
2022/02/20 08:55:23;;;;;;;20.60;19.50;;;9.10;72.50;;;;;;5072027;28;20716;-72
2022/02/20 08:57:51;;;;;;;21.65;20.55;;;9.30;72.20;;;;;;5072263;28;20203;-72
2022/02/20 09:00:18;;;;;;;23.25;22.25;;;9.40;71.80;;;;;;5071543;28;20228;-72
2022/02/20 09:02:45;;;;;;;22.05;20.65;;;9.60;71.30;;;;;;5072388;28;20239;-72
2022/02/20 09:05:13;;;;;;;24.87;23.30;;;9.60;70.70;;;;;;5072317;28;20202;-72
2022/02/20 09:07:39;;;;;;;22.30;21.10;;;9.80;70.40;;;;;;5072189;28;20453;-72
2022/02/20 09:10:09;;;;;;;20.97;19.97;;;9.90;69.80;;;;;;5072177;28;20556;-72
2022/02/20 09:12:36;;;;;;;21.80;20.40;;;9.90;69.50;;;;;;5072272;28;20510;-72
2022/02/20 09:15:06;;;;;;;21.77;20.67;;;10.10;69.20;;;;;;5072213;28;20497;-72
2022/02/20 09:17:34;;;;;;;21.83;20.60;;;10.10;69.30;;;;;;5072278;28;20544;-72
2022/02/20 09:20:01;;;;;;;21.23;19.80;;;10.20;69.30;;;;;;5071886;28;20470;-72
2022/02/20 09:22:28;;;;;;;21.50;20.40;;;10.30;71.60;;;;;;5072151;28;20499;-72
2022/02/20 09:24:56;;;;;;;21.93;20.63;;;10.40;69.30;;;;;;5072233;28;20456;-72
2022/02/20 09:27:23;;;;;;;21.67;20.50;;;10.40;68.60;;;;;;5071871;28;20469;-72
2022/02/20 09:29:50;;;;;;;21.20;20.10;;;10.40;68.10;;;;;;5071890;28;20449;-72
2022/02/20 09:32:21;;;;;;;21.43;20.33;;;10.40;68.30;;;;;;5071952;28;20480;-72
2022/02/20 09:34:48;;;;;;;21.57;20.43;;;10.50;68.30;;;;;;5072125;28;20452;-73
2022/02/20 09:37:15;;;;;;;21.37;20.17;;;10.50;68.20;;;;;;5072015;28;20463;-72
2022/02/20 09:39:42;;;;;;;21.43;20.27;;;10.50;68.10;;;;;;5071732;28;20549;-72
2022/02/20 09:42:09;;;;;;;21.10;20.00;;;10.40;67.80;;;;;;5071999;28;20575;-72
2022/02/20 09:44:36;;;;;;;23.73;22.53;;;10.50;67.90;;;;;;5072003;28;20951;-72
2022/02/20 09:47:04;;;;;;;21.20;20.00;;;10.70;67.50;;;;;;5072068;28;20508;-72
2022/02/20 09:49:34;;;;;;;21.90;20.73;;;10.70;67.50;;;;;;5071731;28;20457;-72
2022/02/20 09:52:01;;;;;;;22.07;20.97;;;10.80;67.20;;;;;;5071701;28;20485;-72
2022/02/20 09:54:28;;;;;;;21.17;20.07;;;10.90;67.00;;;;;;5071815;28;20453;-72
2022/02/20 09:56:55;;;;;;;22.27;20.97;;;10.70;67.40;;;;;;5071851;28;20538;-72
2022/02/20 09:59:22;;;;;;;22.63;21.50;;;10.80;67.20;;;;;;5071554;28;20456;-72
2022/02/20 10:02:03;;;;;;;22.07;20.87;;;11.00;66.80;;;;;;5071811;28;20912;-72
2022/02/20 10:04:41;;;;;;;23.27;22.03;;;11.00;66.90;;;;;;5074285;28;20460;-72
2022/02/20 10:07:09;;;;;;;21.57;20.40;;;11.10;66.60;;;;;;5075201;28;20457;-72
2022/02/20 10:09:39;;;;;;;21.90;20.80;;;11.00;66.30;;;;;;5074985;28;20451;-72
2022/02/20 10:12:25;;;;;;;21.43;20.23;;;11.00;66.50;;;;;;5075117;28;20480;-72
2022/02/20 10:14:53;;;;;;;22.10;21.00;;;11.10;66.40;;;;;;5075218;28;20538;-72
2022/02/20 10:17:22;;;;;;;22.60;21.40;;;11.10;66.20;;;;;;5074946;28;20447;-73
2022/02/20 10:19:59;;;;;;;21.77;20.57;;;11.20;66.20;;;;;;5074920;28;20527;-72
2022/02/20 10:22:33;;;;;;;23.40;21.90;;;11.20;66.10;;;;;;5075171;28;20509;-72
2022/02/20 10:25:06;;;;;;;21.77;20.57;;;11.30;65.80;;;;;;5075054;28;20459;-72
2022/02/20 10:27:33;;;;;;;21.20;20.03;;;11.40;65.50;;;;;;5074514;28;20456;-73
2022/02/20 10:30:21;;;;;;;21.37;20.30;;;11.40;65.30;;;;;;5074559;28;20448;-73
2022/02/20 10:33:05;;;;;;;24.07;22.97;;;11.50;65.90;;;;;;5074702;28;20544;-72
2022/02/20 10:35:36;;;;;;;22.23;21.03;;;11.60;65.50;;;;;;5074762;28;20454;-73
2022/02/20 10:38:08;;;;;;;21.37;20.27;;;11.70;65.40;;;;;;5074692;28;20462;-72
2022/02/20 10:40:35;;;;;;;22.40;21.10;;;11.70;65.50;;;;;;5074357;28;20571;-72
2022/02/20 10:43:05;;;;;;;25.00;23.80;;;11.90;64.80;;;;;;5074748;28;20446;-72
2022/02/20 10:45:34;;;;;;;22.47;21.27;;;11.80;64.50;;;;;;5074599;28;20456;-72
2022/02/20 10:48:02;;;;;;;23.03;21.73;;;11.80;64.30;;;;;;5074620;28;20457;-72
2022/02/20 10:50:31;;;;;;;21.90;20.70;;;11.60;64.80;;;;;;5074146;28;20461;-72
2022/02/20 10:53:14;;;;;;;21.93;20.83;;;11.70;65.00;;;;;;5074291;28;20466;-73
2022/02/20 10:55:43;;;;;;;22.10;20.90;;;11.80;64.40;;;;;;5074451;28;20951;-72
2022/02/20 10:58:13;;;;;;;21.60;20.50;;;11.80;64.40;;;;;;5074411;28;20456;-73
2022/02/20 11:00:51;;;;;;;22.03;20.83;;;11.70;64.40;;;;;;5073937;28;20853;-72
2022/02/20 11:03:18;;;;;;;21.17;20.17;;;11.80;64.90;;;;;;5074331;28;20457;-73
2022/02/20 11:05:45;;;;;;;21.50;20.40;;;11.90;64.20;;;;;;5074079;28;20543;-73
2022/02/20 11:08:15;;;;;;;21.50;20.30;;;11.80;64.10;;;;;;5074196;28;20821;-73
2022/02/20 11:10:43;;;;;;;22.47;21.30;;;11.90;64.00;;;;;;5073831;28;20475;-72
2022/02/20 11:13:11;;;;;;;23.07;21.87;;;12.00;63.50;;;;;;5074037;28;20454;-73
2022/02/20 11:15:39;;;;;;;23.77;22.47;;;12.00;63.50;;;;;;5072970;28;20547;-73
2022/02/20 11:18:07;;;;;;;20.70;19.60;;;11.80;64.00;;;;;;5073914;28;20537;-72
2022/02/20 11:20:36;;;;;;;22.10;20.90;;;12.00;63.80;;;;;;5073627;28;20509;-72
2022/02/20 11:23:05;;;;;;;23.20;22.00;;;12.20;63.30;;;;;;5073899;28;20535;-72
2022/02/20 11:25:35;;;;;;;21.10;20.00;;;12.10;63.00;;;;;;5073761;28;20452;-73
2022/02/20 11:28:04;;;;;;;21.90;20.67;;;12.10;63.20;;;;;;5073361;28;20471;-72
2022/02/20 11:30:32;;;;;;;21.10;20.00;;;12.00;63.10;;;;;;5073512;28;20827;-72
2022/02/20 11:33:01;;;;;;;21.27;20.17;;;12.00;63.90;;;;;;5073567;28;20486;-73
2022/02/20 11:35:29;;;;;;;21.10;20.00;;;12.00;63.80;;;;;;5073596;28;20457;-72
2022/02/20 11:37:57;;;;;;;20.70;19.60;;;12.00;63.80;;;;;;5073508;28;20460;-72
2022/02/20 11:40:28;;;;;;;20.70;19.70;;;12.10;63.90;;;;;;5073086;28;20986;-73
2022/02/20 11:43:10;;;;;;;22.03;20.83;;;12.20;63.40;;;;;;5073717;28;20505;-73
2022/02/20 11:46:11;;;;;;;20.00;19.00;;;12.20;63.30;;;;;;5073467;28;20450;-73
2022/02/20 11:48:58;;;;;;;20.63;19.63;;;12.10;63.30;;;;;;5073196;28;20458;-72
2022/02/20 11:51:26;;;;;;;21.00;19.80;;;12.00;63.80;;;;;;5072817;28;20556;-73
2022/02/20 11:54:15;;;;;;;20.93;19.77;;;12.00;64.10;;;;;;5073227;28;20457;-72
2022/02/20 11:56:42;;;;;;;22.17;21.07;;;12.00;64.00;;;;;;5073163;28;20811;-73
2022/02/20 11:59:17;;;;;;;21.33;20.23;;;11.90;64.20;;;;;;5073002;28;20450;-73
2022/02/20 12:02:09;;;;;;;21.70;20.50;;;11.90;63.90;;;;;;5072965;28;20490;-73
2022/02/20 12:05:06;;;;;;;21.07;20.00;;;11.90;64.10;;;;;;5073008;28;20478;-72
2022/02/20 12:07:37;;;;;;;20.60;19.50;;;11.90;63.90;;;;;;5073236;28;20537;-72
2022/02/20 12:10:38;;;;;;;21.70;20.60;;;11.80;64.30;;;;;;5072737;28;20451;-72
2022/02/20 12:13:32;;;;;;;20.53;19.53;;;11.90;64.30;;;;;;5072949;28;20449;-72
2022/02/20 12:16:28;;;;;;;20.53;19.53;;;12.00;64.30;;;;;;5072868;28;20524;-72
2022/02/20 12:19:09;;;;;;;22.73;21.50;;;12.00;63.90;;;;;;5072941;28;20465;-72
2022/02/20 12:21:57;;;;;;;21.80;20.40;;;12.00;63.80;;;;;;5072682;28;20485;-72
2022/02/20 12:24:27;;;;;;;21.33;20.23;;;11.90;64.20;;;;;;5072812;28;20450;-72
2022/02/20 12:26:55;;;;;;;20.93;19.90;;;11.90;64.10;;;;;;5072325;28;20458;-72
2022/02/20 12:29:25;;;;;;;23.40;21.90;;;11.90;64.20;;;;;;5072467;28;20557;-72
2022/02/20 12:32:14;;;;;;;21.40;20.30;;;11.90;64.40;;;;;;5072459;28;20554;-72
2022/02/20 12:34:45;;;;;;;20.60;19.60;;;11.90;66.00;;;;;;5072546;28;20551;-72
2022/02/20 12:37:13;;;;;;;20.93;19.83;;;11.80;64.90;;;;;;5072624;28;20945;-72
2022/02/20 12:39:40;;;;;;;21.70;20.70;;;11.80;65.00;;;;;;5073008;28;20455;-72
2022/02/20 12:42:07;;;;;;;21.20;20.10;;;11.80;65.00;;;;;;5072357;28;20492;-72